createdAt,value
2023-02-11T00:02:05.348Z,30.98
2023-02-11T00:04:32.146Z,32.60
2023-02-11T00:06:58.619Z,32.33
2023-02-11T00:09:24.997Z,33.28
2023-02-11T00:11:51.385Z,33.58
2023-02-11T00:14:17.763Z,34.63
2023-02-11T00:16:44.333Z,32.78
2023-02-11T00:19:10.732Z,30.70
2023-02-11T00:21:37.094Z,31.85
2023-02-11T00:24:04.020Z,30.17
2023-02-11T00:26:35.206Z,29.05
2023-02-11T00:29:02.511Z,29.98
2023-02-11T00:31:29.247Z,28.30
2023-02-11T00:33:56.821Z,29.40
2023-02-11T00:36:25.820Z,31.65
2023-02-11T00:38:54.722Z,27.67
2023-02-11T00:41:22.173Z,29.48
2023-02-11T00:43:49.043Z,28.48
2023-02-11T00:46:15.714Z,29.05
2023-02-11T00:48:42.135Z,32.28
2023-02-11T00:51:08.777Z,30.45
2023-02-11T00:53:35.683Z,26.55
2023-02-11T00:56:02.536Z,30.25
2023-02-11T00:58:29.124Z,30.00
2023-02-11T01:00:55.904Z,32.50
2023-02-11T01:03:22.459Z,30.70
2023-02-11T01:05:49.292Z,32.60
2023-02-11T01:08:15.788Z,33.85
2023-02-11T01:10:43.908Z,30.88
2023-02-11T01:13:10.492Z,32.17
2023-02-11T01:15:36.887Z,26.92
2023-02-11T01:18:05.637Z,29.70
2023-02-11T01:20:32.119Z,33.00
2023-02-11T01:22:58.536Z,29.65
2023-02-11T01:25:24.940Z,30.73
2023-02-11T01:27:51.319Z,26.95
2023-02-11T01:30:17.729Z,31.02
2023-02-11T01:32:44.121Z,30.45
2023-02-11T01:35:10.651Z,29.52
2023-02-11T01:37:37.180Z,27.10
2023-02-11T01:40:06.595Z,25.38
2023-02-11T01:42:33.332Z,29.25
2023-02-11T01:45:01.895Z,28.10
2023-02-11T01:47:28.296Z,24.00
2023-02-11T01:50:01.526Z,29.85
2023-02-11T01:52:34.967Z,32.25
2023-02-11T01:55:27.021Z,30.35
2023-02-11T01:57:56.955Z,28.52
2023-02-11T02:00:36.219Z,28.73
2023-02-11T02:03:33.984Z,33.53
2023-02-11T02:06:10.808Z,29.27
2023-02-11T02:08:53.721Z,23.73
2023-02-11T02:11:20.137Z,25.38
2023-02-11T02:13:46.796Z,24.83
2023-02-11T02:16:16.137Z,23.83
2023-02-11T02:19:19.260Z,29.42
2023-02-11T02:21:51.885Z,25.90
2023-02-11T02:24:39.697Z,22.67
2023-02-11T02:27:25.265Z,23.08
2023-02-11T02:30:03.354Z,24.38
2023-02-11T02:32:53.304Z,25.67
2023-02-11T02:35:34.906Z,28.77
2023-02-11T02:38:11.809Z,24.67
2023-02-11T02:40:48.660Z,27.13
2023-02-11T02:43:15.678Z,25.83
2023-02-11T02:45:42.170Z,27.23
2023-02-11T02:48:32.952Z,24.08
2023-02-11T02:51:17.649Z,25.77
2023-02-11T02:54:02.793Z,26.83
2023-02-11T02:56:50.185Z,27.45
2023-02-11T02:59:38.713Z,31.88
2023-02-11T03:02:37.091Z,25.33
2023-02-11T03:05:15.286Z,24.77
2023-02-11T03:08:00.007Z,26.50
2023-02-11T03:10:31.051Z,24.23
2023-02-11T03:12:58.292Z,23.92
2023-02-11T03:15:27.492Z,25.08
2023-02-11T03:17:58.219Z,26.88
2023-02-11T03:20:25.523Z,29.20
2023-02-11T03:22:58.753Z,24.67
2023-02-11T03:25:37.038Z,25.33
2023-02-11T03:28:26.812Z,25.75
2023-02-11T03:31:10.555Z,21.63
2023-02-11T03:33:48.341Z,23.60
2023-02-11T03:36:24.233Z,23.08
2023-02-11T03:41:23.232Z,24.70
2023-02-11T03:43:54.268Z,25.05
2023-02-11T03:46:25.298Z,26.45
2023-02-11T03:48:56.309Z,26.20
2023-02-11T03:51:25.642Z,27.27
2023-02-11T03:53:56.878Z,21.38
2023-02-11T03:56:27.594Z,24.08
2023-02-11T03:58:54.017Z,22.45
2023-02-11T04:01:20.645Z,23.55
2023-02-11T04:03:47.036Z,21.33
2023-02-11T04:06:13.434Z,24.13
2023-02-11T04:08:39.899Z,23.33
2023-02-11T04:11:06.433Z,21.20
2023-02-11T04:13:33.011Z,19.73
2023-02-11T04:15:59.442Z,20.80
2023-02-11T04:18:25.876Z,23.85
2023-02-11T04:20:52.287Z,23.60
2023-02-11T04:23:18.731Z,24.85
2023-02-11T04:25:45.110Z,20.48
2023-02-11T04:28:11.510Z,23.00
2023-02-11T04:30:37.948Z,21.42
2023-02-11T04:33:04.366Z,19.70
2023-02-11T04:35:30.761Z,21.85
2023-02-11T04:37:57.428Z,23.27
2023-02-11T04:40:23.903Z,22.55
2023-02-11T04:42:50.305Z,22.50
2023-02-11T04:45:16.794Z,26.73
2023-02-11T04:47:43.229Z,23.67
2023-02-11T04:50:09.960Z,23.15
2023-02-11T04:52:36.343Z,21.98
2023-02-11T04:55:02.971Z,19.08
2023-02-11T04:57:29.516Z,20.70
2023-02-11T04:59:55.988Z,22.48
2023-02-11T05:02:22.373Z,22.30
2023-02-11T05:04:48.732Z,19.38
2023-02-11T05:07:15.112Z,16.30
2023-02-11T05:09:41.630Z,20.52
2023-02-11T05:12:08.450Z,21.50
2023-02-11T05:14:34.828Z,20.20
2023-02-11T05:17:01.328Z,17.60
2023-02-11T05:19:27.944Z,21.52
2023-02-11T05:22:02.637Z,27.40
2023-02-11T05:24:31.651Z,20.08
2023-02-11T05:26:58.023Z,19.83
2023-02-11T05:29:24.405Z,19.75
2023-02-11T05:31:50.764Z,18.98
2023-02-11T05:34:17.139Z,22.15
2023-02-11T05:36:43.529Z,22.55
2023-02-11T05:39:09.930Z,19.08
2023-02-11T05:41:36.399Z,19.60
2023-02-11T05:44:02.801Z,17.50
2023-02-11T05:46:29.223Z,15.23
2023-02-11T05:48:56.826Z,19.05
2023-02-11T05:51:25.218Z,20.08
2023-02-11T05:53:51.658Z,15.98
2023-02-11T05:56:18.083Z,16.83
2023-02-11T05:58:44.461Z,16.17
2023-02-11T06:01:10.868Z,21.40
2023-02-11T06:03:37.423Z,19.58
2023-02-11T06:06:04.154Z,19.67
2023-02-11T06:08:30.555Z,17.92
2023-02-11T06:10:56.921Z,19.90
2023-02-11T06:13:23.319Z,16.25
2023-02-11T06:15:57.439Z,17.70
2023-02-11T06:18:24.032Z,16.75
2023-02-11T06:20:50.431Z,15.00
2023-02-11T06:23:16.829Z,13.50
2023-02-11T06:25:43.231Z,12.30
2023-02-11T06:28:10.671Z,15.82
2023-02-11T06:30:38.059Z,14.85
2023-02-11T06:33:04.840Z,18.75
2023-02-11T06:35:31.316Z,23.75
2023-02-11T06:38:05.531Z,27.10
2023-02-11T06:40:31.914Z,18.73
2023-02-11T06:42:58.284Z,17.40
2023-02-11T06:45:24.709Z,17.65
2023-02-11T06:47:52.737Z,17.10
2023-02-11T06:50:29.188Z,13.60
2023-02-11T06:52:55.559Z,14.95
2023-02-11T06:55:21.993Z,14.93
2023-02-11T06:57:48.366Z,14.68
2023-02-11T07:00:15.123Z,15.80
2023-02-11T07:02:41.644Z,11.65
2023-02-11T07:05:08.656Z,10.88
2023-02-11T07:07:35.704Z,13.18
2023-02-11T07:10:05.824Z,11.30
2023-02-11T07:12:32.257Z,12.38
2023-02-11T07:14:58.858Z,11.32
2023-02-11T07:17:25.271Z,10.77
2023-02-11T07:19:52.688Z,11.35
2023-02-11T07:22:19.548Z,11.80
2023-02-11T07:24:46.412Z,12.93
2023-02-11T07:27:23.129Z,13.68
2023-02-11T07:29:49.524Z,10.52
2023-02-11T07:32:15.992Z,29.08
2023-02-11T07:34:55.807Z,18.50
2023-02-11T07:37:22.201Z,15.50
2023-02-11T07:39:48.570Z,13.63
2023-02-11T07:42:14.931Z,13.40
2023-02-11T07:44:41.413Z,14.80
2023-02-11T07:47:07.880Z,12.75
2023-02-11T07:49:34.311Z,14.68
2023-02-11T07:52:00.711Z,13.57
2023-02-11T07:54:27.083Z,14.55
2023-02-11T07:57:01.689Z,20.35
2023-02-11T07:59:28.073Z,12.25
2023-02-11T08:01:54.548Z,11.02
2023-02-11T08:04:21.013Z,11.98
2023-02-11T08:06:47.429Z,12.30
2023-02-11T08:09:16.933Z,11.27
2023-02-11T08:11:50.512Z,11.77
2023-02-11T08:14:16.952Z,9.85
2023-02-11T08:16:43.484Z,11.32
2023-02-11T08:19:15.526Z,12.80
2023-02-11T08:21:57.460Z,8.82
2023-02-11T08:24:24.009Z,11.43
2023-02-11T08:26:50.410Z,12.35
2023-02-11T08:29:17.868Z,15.38
2023-02-11T08:31:46.843Z,14.63
2023-02-11T08:34:20.392Z,14.43
2023-02-11T08:36:48.777Z,18.35
2023-02-11T08:39:20.223Z,20.05
2023-02-11T08:41:48.991Z,18.13
2023-02-11T08:44:15.936Z,18.45
2023-02-11T08:46:42.332Z,19.65
2023-02-11T08:49:08.707Z,15.88
2023-02-11T08:51:35.200Z,21.67
2023-02-11T08:54:01.653Z,21.33
2023-02-11T08:56:28.498Z,16.35
2023-02-11T08:58:55.167Z,16.83
2023-02-11T09:01:28.409Z,19.73
2023-02-11T09:03:55.239Z,20.17
2023-02-11T09:06:22.546Z,31.02
2023-02-11T09:08:51.624Z,15.50
2023-02-11T09:11:21.645Z,23.00
2023-02-11T09:13:48.226Z,16.58
2023-02-11T09:16:17.799Z,15.68
2023-02-11T09:18:45.587Z,17.23
2023-02-11T09:21:12.834Z,13.05
2023-02-11T09:23:41.709Z,12.13
2023-02-11T09:26:10.629Z,11.27
2023-02-11T09:28:37.088Z,12.65
2023-02-11T09:31:08.527Z,12.68
2023-02-11T09:33:35.486Z,14.88
2023-02-11T09:36:06.096Z,15.48
2023-02-11T09:38:32.917Z,20.60
2023-02-11T09:40:59.570Z,12.98
2023-02-11T09:43:53.720Z,12.60
2023-02-11T09:46:21.869Z,19.55
2023-02-11T09:48:50.698Z,14.18
2023-02-11T09:51:44.775Z,14.15
2023-02-11T09:54:18.281Z,16.40
2023-02-11T09:56:44.650Z,11.90
2023-02-11T09:59:15.390Z,11.38
